Terminal Aerodrome Forecast
Issued by NWS

Home | Current Version | Previous Version | Graphics & Text | Print | Product List | Glossary On
Versions: 1 2 3 4 5 6 7 8 9 10 11 12 13 14 15 16 17 18 19 20 21
000
FTUS43 KGRB 171610 AAB
TAFMTW
TAF AMD
KMTW 171610Z 1716/1812 18010G17KT P6SM VCSH SCT008 BKN015
     FM171700 20013G21KT P6SM VCSH SCT025 BKN050
      TEMPO 1717/1721 4SM SHRA BKN025
     FM172100 22016G24KT P6SM VCSH BKN015 OVC025
     FM180000 25011G20KT P6SM BKN015
     FM180600 28011G21KT P6SM BKN020=

USA.gov is the U.S. government's official web portal to all federal, state and local government web resources and services.